Time;durP1;ratioP1;P1;durP2;ratioP2;P2;SDS_P1;SDS_P2;PMS_P1;PMS_P2;Temp;Humidity;BMP_temperature;BMP_pressure;BME280_temperature;BME280_humidity;BME280_pressure;Samples;Min_cycle;Max_cycle;Signal;HPM_P1;HPM_P2
2023/01/15 13:56:14;;;;;;;7.22;1.90;;;6.80;1.00;;;;;;5898238;23;20867;-51
2023/01/15 13:59:11;;;;;;;2.13;1.47;;;7.00;1.00;;;;;;4937618;28;20233;-52
2023/01/15 14:01:36;;;;;;;3.60;1.60;;;7.10;1.00;;;;;;4905695;29;20558;-53
2023/01/15 14:04:11;;;;;;;7.00;2.07;;;7.30;1.00;;;;;;4929966;29;20518;-53
2023/01/15 14:06:45;;;;;;;4.63;1.60;;;7.50;1.00;;;;;;4931218;29;20202;-54
2023/01/15 14:09:30;;;;;;;5.73;1.70;;;7.50;1.00;;;;;;4929796;29;20442;-53
2023/01/15 14:12:16;;;;;;;13.63;1.80;;;7.30;1.00;;;;;;4935819;29;20438;-52
2023/01/15 14:15:02;;;;;;;7.87;1.93;;;7.00;1.00;;;;;;4934442;29;20449;-52
2023/01/15 14:17:47;;;;;;;7.90;1.70;;;7.00;1.00;;;;;;4935528;29;20458;-52
2023/01/15 14:20:19;;;;;;;5.47;2.10;;;6.90;1.00;;;;;;4935541;29;20473;-51
2023/01/15 14:23:07;;;;;;;11.83;2.10;;;6.90;1.00;;;;;;4955223;29;20425;-52
2023/01/15 14:25:42;;;;;;;5.50;1.90;;;6.90;1.00;;;;;;4937837;29;20533;-52
2023/01/15 14:28:35;;;;;;;9.27;2.20;;;6.90;1.00;;;;;;4935990;29;20409;-52
2023/01/15 14:31:18;;;;;;;3.50;1.30;;;7.00;1.00;;;;;;4935154;29;20434;-53
2023/01/15 14:33:52;;;;;;;2.83;1.80;;;7.00;1.00;;;;;;4930686;29;20460;-52
2023/01/15 14:36:26;;;;;;;4.40;2.10;;;7.00;1.00;;;;;;4941326;29;20433;-50
2023/01/15 14:38:59;;;;;;;17.17;2.10;;;7.00;1.00;;;;;;4934309;29;20461;-51
2023/01/15 14:43:00;;;;;;;6.30;2.10;;;7.00;1.00;;;;;;4935009;29;20923;-52
2023/01/15 14:44:31;;;;;;;6.73;1.70;;;7.00;1.00;;;;;;4928927;29;20532;-52
2023/01/15 14:47:03;;;;;;;6.73;1.90;;;7.00;1.00;;;;;;4921944;29;20474;-51
2023/01/15 14:49:48;;;;;;;10.77;2.30;;;7.00;1.00;;;;;;4922646;29;20438;-52
2023/01/15 14:52:21;;;;;;;8.10;2.40;;;7.10;1.00;;;;;;4923619;29;20434;-52
2023/01/15 14:54:47;;;;;;;11.10;1.90;;;7.10;1.00;;;;;;4921204;29;20442;-54
2023/01/15 14:57:14;;;;;;;16.13;2.20;;;7.10;1.00;;;;;;4928735;29;20470;-53
2023/01/15 14:59:53;;;;;;;5.23;2.10;;;7.10;1.00;;;;;;4919184;29;20470;-53
2023/01/15 15:02:37;;;;;;;7.20;1.90;;;7.10;1.00;;;;;;4906260;29;20445;-53
2023/01/15 15:05:07;;;;;;;8.07;1.93;;;7.10;1.00;;;;;;4923173;29;20441;-50
2023/01/15 15:07:42;;;;;;;4.37;1.50;;;7.10;1.00;;;;;;4921250;29;20442;-53
2023/01/15 15:10:14;;;;;;;7.90;2.07;;;7.10;1.00;;;;;;4924830;29;20457;-55
2023/01/15 15:13:14;;;;;;;3.97;1.57;;;7.00;1.00;;;;;;4924401;29;20434;-53
2023/01/15 15:16:03;;;;;;;13.30;2.30;;;7.00;1.00;;;;;;4923067;29;20477;-53
2023/01/15 15:19:00;;;;;;;5.23;1.90;;;7.00;1.00;;;;;;4918726;29;20474;-54
2023/01/15 15:21:36;;;;;;;6.20;2.13;;;6.90;1.00;;;;;;4897916;29;20463;-53
2023/01/15 15:24:17;;;;;;;9.20;2.27;;;6.80;1.00;;;;;;4921121;29;20998;-55
2023/01/15 15:26:42;;;;;;;7.73;1.80;;;6.70;1.00;;;;;;4909602;29;20442;-54
2023/01/15 15:29:08;;;;;;;11.83;2.10;;;6.50;1.00;;;;;;4926479;29;20465;-55
2023/01/15 15:31:55;;;;;;;8.83;1.87;;;6.40;1.00;;;;;;4922404;29;20209;-55
2023/01/15 15:34:26;;;;;;;12.97;2.37;;;6.30;1.00;;;;;;4921329;29;20246;-55
2023/01/15 15:36:53;;;;;;;10.73;2.20;;;6.20;91.40;;;;;;4920880;29;20663;-57
2023/01/15 15:39:27;;;;;;;9.57;2.00;;;6.10;99.90;;;;;;4922038;29;21033;-56
2023/01/15 15:50:34;;;;;;;4.27;1.60;;;5.50;1.00;;;;;;4922974;29;20449;-52
2023/01/15 15:53:05;;;;;;;4.50;2.17;;;5.30;1.00;;;;;;4921323;29;21061;-51
2023/01/15 15:55:43;;;;;;;9.03;2.17;;;5.20;99.90;;;;;;4927238;29;20445;-51
2023/01/15 15:58:33;;;;;;;11.60;2.20;;;5.20;99.90;;;;;;4924471;29;20592;-52
2023/01/15 16:00:59;;;;;;;5.60;2.00;;;5.20;1.00;;;;;;4935387;29;20532;-46
2023/01/15 16:03:27;;;;;;;3.07;2.10;;;5.20;99.90;;;;;;4927840;29;20518;-47
2023/01/15 16:06:03;;;;;;;7.03;2.33;;;5.20;1.00;;;;;;4931778;29;20449;-48
2023/01/15 16:08:32;;;;;;;8.30;2.00;;;5.20;1.00;;;;;;4939817;29;20458;-48
2023/01/15 16:11:01;;;;;;;4.67;2.43;;;5.20;1.00;;;;;;4936401;29;20821;-47
2023/01/15 16:13:43;;;;;;;5.90;2.50;;;5.20;57.60;;;;;;4936815;29;20458;-45
2023/01/15 16:16:11;;;;;;;4.73;2.50;;;5.20;99.90;;;;;;4929356;29;20531;-45
2023/01/15 16:18:43;;;;;;;6.00;2.67;;;5.10;1.00;;;;;;4947696;29;20491;-46
2023/01/15 16:21:11;;;;;;;4.47;2.53;;;5.10;99.90;;;;;;4937586;29;20473;-44
2023/01/15 16:23:37;;;;;;;6.53;3.23;;;5.10;99.90;;;;;;4934607;29;20441;-44
2023/01/15 16:26:18;;;;;;;7.37;3.00;;;5.10;55.00;;;;;;4932023;29;20443;-44
2023/01/15 16:28:52;;;;;;;4.00;2.07;;;5.10;99.90;;;;;;4929838;29;20567;-42
2023/01/15 16:31:18;;;;;;;4.90;2.10;;;5.10;10.20;;;;;;4937864;29;20453;-43
2023/01/15 16:33:45;;;;;;;2.17;1.90;;;5.10;1.00;;;;;;4928692;29;20449;-43
2023/01/15 16:36:11;;;;;;;2.30;1.77;;;5.10;60.40;;;;;;4935346;29;20465;-43
2023/01/15 16:38:40;;;;;;;6.03;2.07;;;5.00;1.00;;;;;;4937457;29;20469;-41
2023/01/15 16:41:15;;;;;;;1.93;1.53;;;5.00;1.00;;;;;;4933168;29;20203;-43
2023/01/15 16:43:57;;;;;;;4.90;1.80;;;5.00;1.00;;;;;;4937952;29;20448;-43
2023/01/15 16:46:27;;;;;;;3.10;1.20;;;5.00;99.90;;;;;;4937571;29;20449;-43
2023/01/15 16:49:22;;;;;;;7.27;2.13;;;5.00;1.00;;;;;;4937962;29;20562;-43
2023/01/15 16:51:49;;;;;;;3.30;1.63;;;5.00;1.00;;;;;;4914912;29;20519;-41
2023/01/15 16:54:37;;;;;;;4.60;1.30;;;5.00;1.00;;;;;;4937936;29;20458;-43
2023/01/15 16:57:22;;;;;;;7.20;1.53;;;5.10;1.00;;;;;;4926445;29;21031;-41
2023/01/15 17:00:00;;;;;;;3.43;1.47;;;5.10;1.00;;;;;;4928425;29;20497;-42
2023/01/15 17:02:44;;;;;;;6.17;1.90;;;5.10;99.90;;;;;;4931023;29;20439;-43
2023/01/15 17:05:16;;;;;;;2.97;1.97;;;5.10;99.90;;;;;;4938596;29;20452;-43
2023/01/15 17:07:47;;;;;;;2.13;1.90;;;5.00;99.90;;;;;;4929908;28;20502;-43
2023/01/15 17:10:21;;;;;;;1.90;1.57;;;5.00;99.90;;;;;;4934063;29;20484;-46
2023/01/15 17:12:47;;;;;;;1.60;1.50;;;5.00;99.90;;;;;;4937531;29;20445;-44
2023/01/15 17:15:13;;;;;;;7.43;1.57;;;5.00;99.90;;;;;;4933038;29;20446;-47
2023/01/15 17:17:39;;;;;;;2.07;1.20;;;5.00;99.90;;;;;;4926834;29;20466;-46
2023/01/15 17:20:08;;;;;;;2.63;1.57;;;5.00;99.90;;;;;;4935898;29;20228;-45
2023/01/15 17:22:36;;;;;;;2.60;1.60;;;5.00;99.90;;;;;;4935102;29;20450;-44
2023/01/15 17:25:18;;;;;;;2.33;1.63;;;5.00;99.90;;;;;;4930517;29;20931;-46
2023/01/15 17:27:44;;;;;;;1.87;1.53;;;5.10;98.80;;;;;;4916570;29;20529;-47
2023/01/15 17:30:11;;;;;;;5.93;1.20;;;5.10;10.20;;;;;;4934354;29;20545;-46
2023/01/15 17:32:40;;;;;;;3.17;1.27;;;5.10;26.70;;;;;;4921106;29;20211;-46
